createdAt,value
2018-12-11T00:00:45.400Z,5.10
2018-12-11T00:05:49.329Z,5.20
2018-12-11T00:10:53.291Z,5.10
2018-12-11T00:15:57.235Z,5.20
2018-12-11T00:21:01.163Z,5.20
2018-12-11T00:26:05.139Z,5.20
2018-12-11T00:31:15.558Z,5.20
2018-12-11T00:36:19.506Z,5.20
2018-12-11T00:41:23.415Z,5.20
2018-12-11T00:46:27.538Z,5.30
2018-12-11T00:51:31.542Z,5.30
2018-12-11T00:56:35.468Z,5.10
2018-12-11T01:01:39.397Z,5.20
2018-12-11T01:06:43.320Z,5.10
2018-12-11T01:11:47.235Z,5.20
2018-12-11T01:16:51.373Z,5.30
2018-12-11T01:21:55.285Z,5.10
2018-12-11T01:26:59.216Z,5.20
2018-12-11T01:32:03.183Z,5.10
2018-12-11T01:37:07.076Z,5.00
2018-12-11T01:42:11.084Z,5.00
2018-12-11T01:47:15.049Z,5.10
2018-12-11T01:52:19.068Z,5.00
2018-12-11T01:57:23.010Z,5.00
2018-12-11T02:02:27.029Z,5.20
2018-12-11T02:07:31.206Z,5.20
2018-12-11T02:12:35.121Z,5.10
2018-12-11T02:17:39.054Z,5.20
2018-12-11T02:22:43.361Z,5.10
2018-12-11T02:27:47.254Z,5.20
2018-12-11T02:32:51.150Z,5.20
2018-12-11T02:37:55.538Z,5.10
2018-12-11T02:42:59.450Z,5.10
2018-12-11T02:48:03.328Z,5.10
2018-12-11T02:53:07.507Z,5.10
2018-12-11T02:58:11.420Z,5.10
2018-12-11T03:03:15.436Z,4.90
2018-12-11T03:08:19.560Z,5.10
2018-12-11T03:15:34.971Z,4.90
2018-12-11T03:20:38.860Z,5.00
2018-12-11T03:25:43.554Z,5.00
2018-12-11T03:30:47.409Z,5.00
2018-12-11T03:35:51.410Z,4.90
2018-12-11T03:40:55.488Z,5.10
2018-12-11T03:45:59.362Z,5.00
2018-12-11T03:51:04.379Z,4.90
2018-12-11T03:56:08.746Z,4.90
2018-12-11T04:01:12.720Z,5.00
2018-12-11T04:06:16.639Z,5.00
2018-12-11T04:11:20.970Z,4.90
2018-12-11T04:16:25.175Z,5.00
2018-12-11T04:21:29.153Z,4.90
2018-12-11T04:26:33.324Z,5.00
2018-12-11T04:31:37.216Z,4.70
2018-12-11T04:36:41.096Z,5.00
2018-12-11T04:41:45.159Z,4.90
2018-12-11T04:46:49.074Z,4.90
2018-12-11T04:51:52.972Z,4.80
2018-12-11T04:56:57.137Z,5.10
2018-12-11T05:02:01.169Z,5.10
2018-12-11T05:07:05.088Z,5.00
2018-12-11T05:12:09.123Z,4.90
2018-12-11T05:17:13.004Z,4.90
2018-12-11T05:22:16.956Z,4.80
2018-12-11T05:27:22.241Z,4.70
2018-12-11T05:32:26.178Z,4.90
2018-12-11T05:37:30.116Z,4.80
2018-12-11T05:42:34.136Z,4.80
2018-12-11T05:47:38.174Z,4.90
2018-12-11T05:52:42.097Z,4.90
2018-12-11T05:57:47.125Z,5.10
2018-12-11T06:02:51.034Z,5.20
2018-12-11T06:07:54.958Z,5.10
2018-12-11T06:12:58.869Z,4.90
2018-12-11T06:18:02.793Z,4.90
2018-12-11T06:23:06.717Z,4.90
2018-12-11T06:28:10.658Z,4.90
2018-12-11T06:33:14.582Z,4.90
2018-12-11T06:38:18.520Z,4.70
2018-12-11T06:43:22.680Z,4.90
2018-12-11T06:48:26.665Z,4.60
2018-12-11T06:53:30.650Z,4.60
2018-12-11T06:58:34.703Z,4.70
2018-12-11T07:03:38.831Z,4.80
2018-12-11T07:08:42.963Z,4.70
2018-12-11T07:13:46.935Z,4.70
2018-12-11T07:18:50.934Z,4.60
2018-12-11T07:23:54.892Z,4.60
2018-12-11T07:28:58.813Z,4.60
2018-12-11T07:34:02.738Z,4.50
2018-12-11T07:39:07.264Z,4.50
2018-12-11T07:44:11.198Z,4.50
2018-12-11T07:49:15.157Z,4.50
2018-12-11T07:54:19.051Z,4.70
2018-12-11T07:59:23.356Z,4.80
2018-12-11T08:04:27.280Z,4.90
2018-12-11T08:09:31.288Z,4.80
2018-12-11T08:14:35.268Z,5.10
2018-12-11T08:19:39.293Z,5.10
2018-12-11T08:24:43.226Z,5.10
2018-12-11T08:29:47.231Z,5.10
2018-12-11T08:34:52.553Z,5.20
2018-12-11T08:39:56.642Z,5.20
2018-12-11T08:45:00.564Z,5.10
2018-12-11T08:50:04.844Z,5.10
2018-12-11T08:55:08.762Z,5.20
2018-12-11T09:00:12.913Z,5.20
2018-12-11T09:05:16.962Z,5.00
2018-12-11T09:10:21.113Z,5.00
2018-12-11T09:15:25.248Z,4.90
2018-12-11T09:20:29.158Z,5.20
2018-12-11T09:25:33.093Z,4.90
2018-12-11T09:30:37.130Z,5.10
2018-12-11T09:35:41.166Z,5.10
2018-12-11T09:40:45.084Z,5.20
2018-12-11T09:45:49.266Z,5.20
2018-12-11T09:50:53.247Z,5.20
2018-12-11T09:55:57.165Z,5.20
2018-12-11T10:01:01.341Z,5.30
2018-12-11T10:06:05.450Z,5.30
2018-12-11T10:11:09.522Z,5.40
2018-12-11T10:16:13.556Z,5.50
2018-12-11T10:21:17.452Z,5.50
2018-12-11T10:26:21.621Z,5.50
2018-12-11T10:31:25.673Z,5.60
2018-12-11T10:36:29.604Z,5.70
2018-12-11T10:41:33.642Z,5.70
2018-12-11T10:46:37.612Z,5.70
2018-12-11T10:51:41.520Z,5.60
2018-12-11T10:56:45.489Z,5.80
2018-12-11T11:01:51.505Z,5.80
2018-12-11T11:06:55.464Z,5.80
2018-12-11T11:17:03.174Z,5.70
2018-12-11T11:22:07.093Z,5.90
2018-12-11T11:27:11.054Z,5.10
2018-12-11T11:32:15.501Z,5.80
2018-12-11T11:37:19.426Z,6.00
2018-12-11T11:42:23.686Z,6.00
2018-12-11T11:47:27.687Z,6.30
2018-12-11T11:52:31.585Z,6.20
2018-12-11T11:57:35.522Z,6.30
2018-12-11T12:02:40.258Z,6.40
2018-12-11T12:07:44.305Z,6.50
2018-12-11T12:12:48.226Z,6.60
2018-12-11T12:17:52.332Z,6.50
2018-12-11T12:22:56.261Z,6.60
2018-12-11T12:28:00.201Z,6.60
2018-12-11T12:33:04.246Z,6.70
2018-12-11T12:38:08.204Z,6.60
2018-12-11T12:43:12.117Z,6.60
2018-12-11T12:48:16.395Z,6.60
2018-12-11T12:53:20.411Z,6.70
2018-12-11T12:58:24.517Z,6.70
2018-12-11T13:03:28.647Z,6.70
2018-12-11T13:08:32.578Z,6.80
2018-12-11T13:13:36.515Z,7.20
2018-12-11T13:20:21.326Z,7.20
2018-12-11T13:25:25.241Z,8.00
2018-12-11T13:30:29.164Z,7.30
2018-12-11T13:35:33.113Z,7.30
2018-12-11T13:40:37.260Z,7.10
2018-12-11T13:45:41.306Z,7.40
2018-12-11T13:50:45.519Z,7.40
2018-12-11T13:55:49.414Z,7.60
2018-12-11T14:00:53.331Z,7.70
2018-12-11T14:05:57.430Z,7.70
2018-12-11T14:11:01.380Z,7.70
2018-12-11T14:16:05.739Z,7.90
2018-12-11T14:21:09.653Z,7.20
2018-12-11T14:26:13.729Z,7.30
2018-12-11T14:31:17.679Z,7.30
2018-12-11T14:36:21.917Z,7.20
2018-12-11T14:41:25.891Z,7.10
2018-12-11T14:46:29.809Z,7.20
2018-12-11T14:51:33.737Z,7.30
2018-12-11T14:56:37.733Z,7.60
2018-12-11T15:01:41.657Z,7.40
2018-12-11T15:10:12.689Z,7.40
2018-12-11T15:15:16.618Z,8.20
2018-12-11T15:20:20.518Z,7.60
2018-12-11T15:25:24.477Z,7.50
2018-12-11T15:30:28.368Z,7.50
2018-12-11T15:35:32.296Z,7.30
2018-12-11T15:40:36.230Z,7.20
2018-12-11T15:45:40.142Z,7.20
2018-12-11T15:50:44.327Z,7.20
2018-12-11T15:55:48.254Z,7.30
2018-12-11T16:00:52.249Z,7.40
2018-12-11T16:05:56.316Z,7.30
2018-12-11T16:11:00.405Z,7.10
2018-12-11T16:16:04.356Z,7.10
2018-12-11T16:21:08.288Z,7.60
2018-12-11T16:26:12.346Z,6.80
2018-12-11T16:31:16.260Z,6.80
2018-12-11T16:36:20.208Z,6.80
2018-12-11T16:41:24.198Z,8.80
2018-12-11T16:46:28.153Z,7.10
2018-12-11T16:51:32.194Z,7.30
2018-12-11T16:56:36.269Z,7.20
2018-12-11T17:01:40.250Z,7.10
2018-12-11T17:06:44.219Z,7.20
2018-12-11T17:11:49.125Z,6.90
2018-12-11T17:16:53.145Z,6.70
2018-12-11T17:21:57.307Z,6.80
2018-12-11T17:27:01.283Z,6.70
2018-12-11T17:32:05.304Z,6.80
2018-12-11T17:37:09.371Z,6.90
2018-12-11T17:42:13.856Z,7.00
2018-12-11T17:47:17.826Z,7.00
2018-12-11T17:52:21.777Z,7.00
2018-12-11T17:57:25.732Z,6.90
2018-12-11T18:02:34.375Z,6.90
2018-12-11T18:07:38.381Z,6.00
2018-12-11T18:12:42.355Z,6.00
2018-12-11T18:17:46.706Z,6.00
2018-12-11T18:22:51.001Z,6.30
2018-12-11T18:27:55.235Z,6.50
2018-12-11T18:32:59.867Z,6.50
2018-12-11T18:38:04.799Z,6.30
2018-12-11T18:43:10.757Z,6.30
2018-12-11T18:48:15.513Z,6.40
2018-12-11T18:53:20.446Z,6.30
2018-12-11T18:58:24.871Z,6.40
2018-12-11T19:03:28.962Z,6.60
2018-12-11T19:08:33.185Z,6.70
2018-12-11T19:13:37.851Z,6.50
2018-12-11T19:18:42.179Z,6.70
2018-12-11T19:23:56.289Z,6.70
2018-12-11T19:29:02.537Z,6.40
2018-12-11T19:34:07.162Z,6.40
2018-12-11T19:39:11.117Z,6.60
2018-12-11T19:44:16.176Z,6.30
2018-12-11T19:49:21.239Z,6.40
2018-12-11T19:54:25.404Z,6.40
2018-12-11T19:59:33.611Z,6.40
2018-12-11T20:04:39.259Z,6.40
2018-12-11T20:09:48.650Z,6.50
2018-12-11T20:14:54.608Z,6.30
2018-12-11T20:19:59.128Z,6.30
2018-12-11T20:25:03.930Z,6.40
2018-12-11T20:30:11.971Z,6.30
2018-12-11T20:35:20.125Z,6.30
2018-12-11T20:40:27.567Z,6.30
2018-12-11T20:45:32.565Z,6.20
2018-12-11T20:53:25.376Z,6.10
2018-12-11T20:58:29.928Z,6.10
2018-12-11T21:03:34.513Z,6.00
2018-12-11T21:08:39.296Z,8.40
2018-12-11T21:13:43.527Z,5.70
2018-12-11T21:18:47.951Z,6.00
2018-12-11T21:23:54.024Z,6.00
2018-12-11T21:29:00.491Z,5.40
2018-12-11T21:34:05.287Z,5.80
2018-12-11T21:39:10.322Z,5.90
2018-12-11T21:44:14.404Z,5.90
2018-12-11T21:49:19.232Z,5.80
2018-12-11T21:54:23.271Z,5.80
2018-12-11T21:59:27.997Z,5.70
2018-12-11T22:09:14.684Z,5.70
2018-12-11T22:14:18.719Z,5.70
2018-12-11T22:19:22.656Z,5.60
2018-12-11T22:24:26.604Z,5.60
2018-12-11T22:29:30.528Z,5.60
2018-12-11T22:34:34.425Z,5.70
2018-12-11T22:39:38.398Z,5.50
2018-12-11T22:44:42.348Z,5.50
2018-12-11T22:49:46.414Z,5.50
2018-12-11T22:54:50.695Z,5.50
2018-12-11T22:59:54.623Z,5.50
2018-12-11T23:04:58.729Z,5.60
2018-12-11T23:10:02.767Z,5.50
2018-12-11T23:15:06.921Z,5.50
2018-12-11T23:20:10.863Z,5.50
2018-12-11T23:25:15.236Z,5.50
2018-12-11T23:30:19.261Z,4.90
2018-12-11T23:35:23.233Z,4.60
2018-12-11T23:40:27.166Z,5.00
2018-12-11T23:45:31.100Z,5.20
2018-12-11T23:50:35.041Z,5.40
2018-12-11T23:55:38.970Z,5.20
